Lone Mountain, Texas
Current Conditions -  °F | °C
As of 3:15 PM on Sunday 23 Nov 2014 (Local Time) from KOSA Reporting Station
Clear Clear  
Wind Chill: 73°   Ceiling: Unl
Heat Index: 73°   Visibility: 10mi
Dew Point: 54°   Wind: 18mph
Humidity: 51%   Direction: 200°SSW
Pressure: 29.39"   Gusts: 23mph
Location:  32.7353°N, 94.9492°W
Report Text: KOSA 232115Z AUTO 20016G20KT 10SM CLR 23/12 A2939 RMK AO1 T02270121
Loading
Personal Weather Stations






























Interactive Weather Map New forecast layout! Learn more

10-Day Weather Forecast

Advertisements
Track Severe Weather on mobile